Time;durP1;ratioP1;P1;durP2;ratioP2;P2;SDS_P1;SDS_P2;PMS_P1;PMS_P2;Temp;Humidity;BMP_temperature;BMP_pressure;BME280_temperature;BME280_humidity;BME280_pressure;Samples;Min_cycle;Max_cycle;Signal;HPM_P1;HPM_P2
2022/08/13 00:02:10;;;;;;;5.28;2.30;;;19.80;95.90;;;;;;5027481;28;20045;-68
2022/08/13 00:04:37;;;;;;;4.53;2.30;;;19.80;96.40;;;;;;5041946;28;20192;-68
2022/08/13 00:07:08;;;;;;;3.15;2.55;;;19.80;96.60;;;;;;5043463;28;20509;-68
2022/08/13 00:09:41;;;;;;;4.15;2.85;;;19.80;96.70;;;;;;5025061;28;20052;-69
2022/08/13 00:15:07;;;;;;;7.75;2.35;;;19.70;97.10;;;;;;5040024;28;20374;-68
2022/08/13 00:17:33;;;;;;;3.22;2.17;;;19.60;97.40;;;;;;5041557;28;20021;-68
2022/08/13 00:19:59;;;;;;;4.68;2.40;;;19.60;97.70;;;;;;5045239;28;20067;-69
2022/08/13 00:22:26;;;;;;;5.03;2.30;;;19.60;97.80;;;;;;5043712;28;20362;-68
2022/08/13 00:24:52;;;;;;;3.58;2.40;;;19.50;98.30;;;;;;5044897;28;20045;-68
2022/08/13 00:27:19;;;;;;;3.33;2.70;;;19.50;98.30;;;;;;5022531;28;20377;-69
2022/08/13 00:29:45;;;;;;;5.32;2.20;;;19.50;98.60;;;;;;5040465;28;20048;-69
2022/08/13 00:32:11;;;;;;;3.55;2.28;;;19.40;98.70;;;;;;5038179;28;20041;-69
2022/08/13 00:34:37;;;;;;;4.55;2.13;;;19.40;99.10;;;;;;5043456;28;20056;-68
2022/08/13 00:37:03;;;;;;;2.95;2.45;;;19.30;99.20;;;;;;5039750;28;20442;-69
2022/08/13 00:39:29;;;;;;;5.38;2.90;;;19.20;99.30;;;;;;5041589;28;20118;-69
2022/08/13 00:41:55;;;;;;;4.65;2.47;;;19.20;99.80;;;;;;5040744;28;20461;-68
2022/08/13 00:44:20;;;;;;;5.18;2.75;;;19.10;99.90;;;;;;5041330;28;20103;-69
2022/08/13 00:46:47;;;;;;;4.90;2.60;;;19.00;99.90;;;;;;5046234;28;20048;-68
2022/08/13 00:49:13;;;;;;;5.00;3.08;;;19.00;99.90;;;;;;5043515;28;20045;-69
2022/08/13 00:51:40;;;;;;;7.75;3.20;;;18.90;99.90;;;;;;5042828;28;20405;-69
2022/08/13 00:54:10;;;;;;;4.72;3.03;;;18.90;99.90;;;;;;5040539;28;20069;-69
2022/08/13 00:56:37;;;;;;;4.28;3.08;;;18.80;99.90;;;;;;5037351;28;20056;-69
2022/08/13 00:59:11;;;;;;;5.30;2.83;;;18.70;99.90;;;;;;5035583;28;20523;-68
2022/08/13 01:01:40;;;;;;;3.97;2.50;;;18.60;99.90;;;;;;5037915;28;20103;-69
2022/08/13 01:04:07;;;;;;;3.17;2.80;;;18.50;99.90;;;;;;5059130;28;20045;-68
2022/08/13 01:06:35;;;;;;;6.60;3.35;;;18.50;99.90;;;;;;5045095;28;20060;-69
2022/08/13 01:09:02;;;;;;;4.22;2.80;;;18.50;99.90;;;;;;5042292;28;20037;-68
2022/08/13 01:11:32;;;;;;;4.30;2.95;;;18.50;99.90;;;;;;5043316;28;20056;-68
2022/08/13 01:13:59;;;;;;;5.38;3.13;;;18.40;99.90;;;;;;5040964;28;20083;-68
2022/08/13 01:16:28;;;;;;;5.35;2.92;;;18.40;99.90;;;;;;5045817;28;20100;-69
2022/08/13 01:18:53;;;;;;;6.95;2.97;;;18.40;99.90;;;;;;5042286;28;20040;-68
2022/08/13 01:21:25;;;;;;;6.93;3.10;;;18.30;99.90;;;;;;5049867;28;20037;-68
2022/08/13 01:23:53;;;;;;;6.32;3.30;;;18.30;99.90;;;;;;5047196;28;20083;-69
2022/08/13 01:26:22;;;;;;;8.05;3.20;;;18.30;99.90;;;;;;5023667;28;20049;-68
2022/08/13 01:28:50;;;;;;;5.65;2.80;;;18.20;99.90;;;;;;5038792;28;20032;-68
2022/08/13 01:31:18;;;;;;;7.95;3.45;;;18.10;99.90;;;;;;5045366;28;20103;-68
2022/08/13 01:33:49;;;;;;;5.50;3.20;;;18.20;99.90;;;;;;5044149;28;20048;-69
2022/08/13 01:36:16;;;;;;;5.22;3.08;;;18.10;99.90;;;;;;5040383;28;20119;-68
2022/08/13 01:38:42;;;;;;;4.20;2.78;;;18.10;99.90;;;;;;5045421;28;20049;-68
2022/08/13 01:41:09;;;;;;;6.97;3.40;;;18.00;99.90;;;;;;5044849;28;20044;-68
2022/08/13 01:43:37;;;;;;;5.05;3.20;;;18.00;99.90;;;;;;5041722;28;20128;-68
2022/08/13 01:46:07;;;;;;;5.28;2.97;;;18.00;99.90;;;;;;5041612;28;20488;-68
2022/08/13 01:51:32;;;;;;;4.45;2.60;;;17.90;99.90;;;;;;5043251;28;20051;-68
2022/08/13 01:54:00;;;;;;;3.22;2.50;;;17.80;99.90;;;;;;5039480;28;20139;-68
2022/08/13 01:56:28;;;;;;;8.18;3.13;;;17.80;99.90;;;;;;5042596;28;20489;-68
2022/08/13 01:58:57;;;;;;;8.95;3.03;;;17.70;99.90;;;;;;5024384;28;20123;-68
2022/08/13 02:01:25;;;;;;;4.07;2.75;;;17.70;99.90;;;;;;5039121;28;20125;-68
2022/08/13 02:03:56;;;;;;;7.18;3.22;;;17.60;99.90;;;;;;5040936;28;20041;-68
2022/08/13 02:06:31;;;;;;;4.80;2.90;;;17.70;99.90;;;;;;5039004;28;20037;-68
2022/08/13 02:09:04;;;;;;;6.80;2.95;;;17.70;99.90;;;;;;5036338;28;20040;-68
2022/08/13 02:11:34;;;;;;;3.40;2.78;;;17.70;99.90;;;;;;5043789;28;20052;-68
2022/08/13 02:14:05;;;;;;;6.70;3.10;;;17.60;99.90;;;;;;5036998;28;20099;-68
2022/08/13 02:16:32;;;;;;;4.93;3.10;;;17.60;99.90;;;;;;5041657;28;20041;-68
2022/08/13 02:18:59;;;;;;;6.32;2.90;;;17.50;99.90;;;;;;5043974;28;20042;-69
2022/08/13 02:21:25;;;;;;;4.20;3.00;;;17.50;99.90;;;;;;5039588;28;20056;-69
2022/08/13 02:23:56;;;;;;;4.30;2.90;;;17.50;99.90;;;;;;5037807;28;20136;-68
2022/08/13 02:26:23;;;;;;;4.18;2.80;;;17.40;99.90;;;;;;5039713;28;20460;-68
2022/08/13 02:28:57;;;;;;;6.78;2.75;;;17.40;99.90;;;;;;5029019;28;20439;-69
2022/08/13 02:31:23;;;;;;;3.30;2.40;;;17.40;99.90;;;;;;5044216;28;20041;-68
2022/08/13 02:33:48;;;;;;;4.82;3.47;;;17.30;99.90;;;;;;5046861;28;20106;-69
2022/08/13 02:36:15;;;;;;;7.28;3.00;;;17.30;99.90;;;;;;5049396;28;20052;-68
2022/08/13 02:38:44;;;;;;;4.07;3.15;;;17.30;99.90;;;;;;5036936;28;20124;-68
2022/08/13 02:43:55;;;;;;;4.38;2.92;;;17.20;99.90;;;;;;5041375;28;20080;-69
2022/08/13 02:46:21;;;;;;;8.45;3.20;;;17.10;99.90;;;;;;5043573;28;20124;-69
2022/08/13 02:48:49;;;;;;;4.95;3.20;;;17.10;99.90;;;;;;5039492;28;20069;-69
2022/08/13 02:51:15;;;;;;;5.45;2.95;;;17.10;99.90;;;;;;5039706;28;20052;-69
2022/08/13 02:53:42;;;;;;;5.13;3.00;;;17.00;99.90;;;;;;5036950;28;20046;-69
2022/08/13 02:56:08;;;;;;;3.67;2.92;;;17.00;99.90;;;;;;5041740;28;20038;-69
2022/08/13 02:58:40;;;;;;;4.90;2.88;;;17.00;99.90;;;;;;5023266;28;20479;-69
2022/08/13 03:01:10;;;;;;;5.03;3.25;;;17.00;99.90;;;;;;5037153;28;20042;-69
2022/08/13 03:03:36;;;;;;;3.42;2.70;;;16.90;99.90;;;;;;5040078;28;20056;-69
2022/08/13 03:06:02;;;;;;;4.72;3.17;;;16.90;99.90;;;;;;5041427;28;20044;-69
2022/08/13 03:08:28;;;;;;;4.90;2.65;;;16.90;99.90;;;;;;5039917;28;20041;-69
2022/08/13 03:10:55;;;;;;;6.07;2.90;;;16.80;99.90;;;;;;5045462;28;20036;-69
2022/08/13 03:13:29;;;;;;;5.82;3.38;;;16.80;99.90;;;;;;5037043;28;20033;-68
2022/08/13 03:15:56;;;;;;;4.47;3.35;;;16.80;99.90;;;;;;5040952;28;20033;-69
2022/08/13 03:18:24;;;;;;;3.78;3.25;;;16.80;99.90;;;;;;5036155;28;20558;-69
2022/08/13 03:20:50;;;;;;;4.32;3.20;;;16.70;99.90;;;;;;5023913;28;20042;-69
2022/08/13 03:23:16;;;;;;;4.75;3.10;;;16.70;99.90;;;;;;5035987;28;20413;-69
2022/08/13 03:25:42;;;;;;;3.85;2.80;;;16.70;99.90;;;;;;5020664;28;20186;-69
2022/08/13 03:28:08;;;;;;;3.42;3.08;;;16.60;99.90;;;;;;5036812;28;20061;-69
2022/08/13 03:30:35;;;;;;;6.28;3.22;;;16.60;99.90;;;;;;5040359;28;20381;-69
2022/08/13 03:33:09;;;;;;;5.50;3.25;;;16.50;99.90;;;;;;5042760;28;20033;-69
2022/08/13 03:35:37;;;;;;;4.45;3.45;;;16.50;99.90;;;;;;5040742;28;20477;-69
2022/08/13 03:38:05;;;;;;;5.45;3.10;;;16.50;99.90;;;;;;5040805;28;20033;-69
2022/08/13 03:43:16;;;;;;;9.10;3.58;;;16.50;99.90;;;;;;5039035;28;20097;-68
2022/08/13 03:45:44;;;;;;;6.78;3.42;;;16.40;99.90;;;;;;5045693;28;20073;-70
2022/08/13 03:48:13;;;;;;;3.70;3.22;;;16.40;99.90;;;;;;5037624;28;20044;-69
2022/08/13 03:50:40;;;;;;;4.40;3.47;;;16.40;99.90;;;;;;5035581;28;20517;-69
2022/08/13 03:53:06;;;;;;;3.92;3.42;;;16.40;99.90;;;;;;5038895;28;20052;-69
2022/08/13 03:55:37;;;;;;;5.60;3.20;;;16.40;99.90;;;;;;5037866;28;20053;-69
2022/08/13 03:58:04;;;;;;;5.95;2.95;;;16.40;99.90;;;;;;5040524;28;20037;-69
2022/08/13 04:00:34;;;;;;;6.82;3.80;;;16.30;99.90;;;;;;5023377;28;20448;-69
2022/08/13 04:03:00;;;;;;;6.00;3.15;;;16.20;99.90;;;;;;5040170;28;20520;-69
2022/08/13 04:05:27;;;;;;;6.88;2.90;;;16.30;99.90;;;;;;5037004;28;20053;-68
2022/08/13 04:07:53;;;;;;;4.05;3.30;;;16.30;99.90;;;;;;5035899;28;20046;-69
2022/08/13 04:10:20;;;;;;;4.00;3.20;;;16.20;99.90;;;;;;5033809;28;20037;-68
2022/08/13 04:12:46;;;;;;;4.18;3.05;;;16.20;99.90;;;;;;5035928;28;20034;-69
2022/08/13 04:15:12;;;;;;;9.18;3.10;;;16.20;99.90;;;;;;5037732;28;20076;-69
2022/08/13 04:17:40;;;;;;;7.13;3.05;;;16.20;99.90;;;;;;5042367;28;20463;-69
2022/08/13 04:20:10;;;;;;;5.68;3.08;;;16.20;99.90;;;;;;5041148;28;20130;-69
2022/08/13 04:22:39;;;;;;;6.80;3.28;;;16.20;99.90;;;;;;5043955;28;20041;-68
2022/08/13 04:25:09;;;;;;;9.15;3.53;;;16.20;99.90;;;;;;5023889;28;20046;-69
2022/08/13 04:27:35;;;;;;;4.57;3.58;;;16.20;99.90;;;;;;5040727;28;20033;-69
2022/08/13 04:30:03;;;;;;;4.40;3.13;;;16.10;99.90;;;;;;5039996;28;20272;-69
2022/08/13 04:32:29;;;;;;;4.57;3.75;;;16.10;99.90;;;;;;5039644;28;20084;-69
2022/08/13 04:34:54;;;;;;;5.75;3.42;;;16.10;99.90;;;;;;5043790;28;20072;-69
2022/08/13 04:37:22;;;;;;;6.03;3.03;;;16.10;99.90;;;;;;5051883;28;20053;-69
2022/08/13 04:39:52;;;;;;;7.53;3.63;;;16.20;99.90;;;;;;5047313;28;20107;-68
2022/08/13 04:42:18;;;;;;;5.70;3.50;;;16.20;99.90;;;;;;5042695;28;20038;-69
2022/08/13 04:44:44;;;;;;;3.70;2.92;;;16.20;99.90;;;;;;5049789;28;20041;-68
2022/08/13 04:47:09;;;;;;;5.40;3.30;;;16.20;99.90;;;;;;5042729;28;20547;-69
2022/08/13 04:49:35;;;;;;;6.25;3.35;;;16.20;99.90;;;;;;5044398;28;20045;-69
2022/08/13 04:52:01;;;;;;;5.40;3.10;;;16.20;99.90;;;;;;5039822;28;20048;-69
2022/08/13 04:54:28;;;;;;;3.85;3.45;;;16.20;99.90;;;;;;5037196;28;20061;-68
2022/08/13 04:56:54;;;;;;;5.15;3.58;;;16.20;99.90;;;;;;5045697;28;20048;-69
2022/08/13 04:59:22;;;;;;;4.13;3.20;;;16.30;99.90;;;;;;5037868;28;20099;-69
2022/08/13 05:01:48;;;;;;;6.25;2.95;;;16.30;99.90;;;;;;5041260;28;20120;-69
2022/08/13 05:04:17;;;;;;;5.80;3.25;;;16.40;99.90;;;;;;5040515;28;20037;-69
2022/08/13 05:06:46;;;;;;;4.30;3.30;;;16.50;99.90;;;;;;5043920;28;20049;-69
2022/08/13 05:09:11;;;;;;;5.75;2.90;;;16.60;99.90;;;;;;5040691;28;20032;-69
2022/08/13 05:11:38;;;;;;;5.72;2.65;;;16.80;99.90;;;;;;5059547;28;20041;-69
2022/08/13 05:14:04;;;;;;;4.75;2.88;;;16.90;99.90;;;;;;5040089;28;20057;-69
2022/08/13 05:16:30;;;;;;;5.20;3.42;;;17.00;99.90;;;;;;5043406;28;20045;-69
2022/08/13 05:18:55;;;;;;;4.40;2.90;;;17.10;99.90;;;;;;5046401;28;20045;-69
2022/08/13 05:21:23;;;;;;;5.50;3.03;;;17.20;99.90;;;;;;5045892;28;20415;-69
2022/08/13 05:23:56;;;;;;;6.43;2.92;;;17.40;99.90;;;;;;5044899;28;20128;-69
2022/08/13 05:26:31;;;;;;;4.60;2.85;;;17.40;99.90;;;;;;5041907;28;20053;-69
2022/08/13 05:29:02;;;;;;;5.45;2.60;;;17.50;99.90;;;;;;5028133;28;20033;-69
2022/08/13 05:31:28;;;;;;;4.38;2.90;;;17.60;99.90;;;;;;5041929;28;20037;-69
2022/08/13 05:33:54;;;;;;;5.82;3.20;;;17.80;99.90;;;;;;5043455;28;20044;-69
2022/08/13 05:36:21;;;;;;;8.70;2.92;;;17.90;99.90;;;;;;5043798;28;20123;-69
2022/08/13 05:38:48;;;;;;;5.40;3.08;;;18.00;99.90;;;;;;5040455;28;20037;-69
2022/08/13 05:41:16;;;;;;;5.13;2.58;;;18.10;99.90;;;;;;5037012;28;20092;-69
2022/08/13 05:43:42;;;;;;;7.55;2.47;;;18.30;99.90;;;;;;5040074;28;20333;-69
2022/08/13 05:46:09;;;;;;;3.97;2.90;;;18.40;99.90;;;;;;5041056;28;20037;-69
2022/08/13 05:48:38;;;;;;;4.63;2.42;;;18.60;99.90;;;;;;5047744;28;20041;-69
2022/08/13 05:51:08;;;;;;;5.45;2.63;;;19.00;99.90;;;;;;5039181;28;20446;-69
2022/08/13 05:53:38;;;;;;;5.03;2.50;;;19.10;99.90;;;;;;5040794;28;20088;-69
2022/08/13 05:56:06;;;;;;;6.38;2.55;;;19.20;99.90;;;;;;5041583;28;20049;-68
2022/08/13 05:58:32;;;;;;;3.97;2.15;;;19.20;99.60;;;;;;5042292;28;20099;-69
2022/08/13 06:03:42;;;;;;;5.93;2.40;;;19.30;98.70;;;;;;5041082;28;20099;-69
2022/08/13 06:06:10;;;;;;;6.68;2.20;;;19.40;98.80;;;;;;5041958;28;20037;-68
2022/08/13 06:08:41;;;;;;;4.15;2.38;;;19.50;98.50;;;;;;5048298;28;20087;-69
2022/08/13 06:11:18;;;;;;;4.43;2.20;;;19.50;97.90;;;;;;5036615;28;20045;-69
2022/08/13 06:13:48;;;;;;;4.30;2.15;;;19.60;97.00;;;;;;5036756;28;20134;-69
2022/08/13 06:16:17;;;;;;;6.28;2.42;;;19.70;96.50;;;;;;5045242;28;20111;-69
2022/08/13 06:18:48;;;;;;;7.60;3.13;;;19.70;96.60;;;;;;5044335;28;20052;-69
2022/08/13 06:21:16;;;;;;;7.35;2.25;;;19.90;96.10;;;;;;5033381;28;20593;-69
2022/08/13 06:23:45;;;;;;;4.95;2.00;;;20.00;96.20;;;;;;5040891;28;20485;-69
2022/08/13 06:26:14;;;;;;;10.68;2.97;;;20.10;96.30;;;;;;5027133;28;20507;-69
2022/08/13 06:28:41;;;;;;;3.75;1.80;;;20.20;95.30;;;;;;5034800;28;20107;-69
2022/08/13 06:31:08;;;;;;;5.68;1.88;;;20.30;95.30;;;;;;5035283;28;20041;-69
2022/08/13 06:33:36;;;;;;;3.30;1.83;;;20.40;94.90;;;;;;5036420;28;20042;-69
2022/08/13 06:36:07;;;;;;;4.00;1.88;;;20.60;94.40;;;;;;5037913;28;20396;-69
2022/08/13 06:38:40;;;;;;;5.03;1.83;;;20.70;93.90;;;;;;5036739;28;20048;-69
2022/08/13 06:41:07;;;;;;;4.85;1.90;;;20.80;93.50;;;;;;5041891;28;20412;-69
2022/08/13 06:43:56;;;;;;;4.15;1.48;;;21.00;93.50;;;;;;5058190;28;20033;-69
2022/08/13 06:46:25;;;;;;;2.33;1.52;;;21.20;92.60;;;;;;5031506;28;20132;-69
2022/08/13 06:48:51;;;;;;;4.88;1.35;;;21.30;92.70;;;;;;5021920;28;20508;-69
2022/08/13 06:51:17;;;;;;;8.55;1.70;;;21.40;92.20;;;;;;5039334;28;20496;-69
2022/08/13 06:53:45;;;;;;;2.95;1.58;;;21.60;91.50;;;;;;5036410;28;20088;-69
2022/08/13 06:56:21;;;;;;;4.00;1.30;;;21.80;91.50;;;;;;5034610;28;20053;-69
2022/08/13 06:58:50;;;;;;;5.63;1.77;;;21.90;91.10;;;;;;5031842;28;20053;-69
2022/08/13 07:01:22;;;;;;;4.43;1.30;;;22.10;90.70;;;;;;5037818;28;20049;-69
2022/08/13 07:03:49;;;;;;;4.13;1.10;;;22.30;90.10;;;;;;5053418;28;20041;-69
2022/08/13 07:06:22;;;;;;;2.45;1.00;;;22.40;87.90;;;;;;5040345;28;20055;-69
2022/08/13 07:08:48;;;;;;;4.45;1.20;;;22.60;88.20;;;;;;5042080;28;20496;-69
2022/08/13 07:11:22;;;;;;;3.22;1.33;;;22.80;86.70;;;;;;5044072;28;20041;-69
2022/08/13 07:13:51;;;;;;;5.95;1.23;;;23.00;84.10;;;;;;5016102;28;20063;-69
2022/08/13 07:16:19;;;;;;;2.78;0.80;;;23.20;82.80;;;;;;5038562;28;20080;-69
2022/08/13 07:18:46;;;;;;;2.65;0.88;;;23.30;82.70;;;;;;5042716;28;20073;-69
2022/08/13 07:21:17;;;;;;;3.95;1.15;;;23.50;82.80;;;;;;5036144;28;20053;-69
2022/08/13 07:23:43;;;;;;;4.13;1.17;;;23.60;81.30;;;;;;5037158;28;20053;-70
2022/08/13 07:26:12;;;;;;;3.08;0.63;;;23.90;79.70;;;;;;5032927;28;20505;-69
2022/08/13 07:28:40;;;;;;;5.57;1.00;;;24.10;78.70;;;;;;5042560;28;20072;-68
2022/08/13 07:31:07;;;;;;;1.83;0.70;;;24.30;77.60;;;;;;5038589;28;20052;-69
2022/08/13 07:33:35;;;;;;;2.60;0.70;;;24.60;76.90;;;;;;5045245;28;20036;-70
2022/08/13 07:36:10;;;;;;;2.08;0.70;;;24.90;73.30;;;;;;5045305;28;20461;-69
2022/08/13 07:38:36;;;;;;;4.13;1.33;;;25.20;71.70;;;;;;5042300;28;20041;-68
2022/08/13 07:41:03;;;;;;;2.30;1.20;;;25.40;70.70;;;;;;5033809;28;20119;-68
2022/08/13 07:43:32;;;;;;;5.35;1.10;;;25.60;70.00;;;;;;5038780;28;20116;-68
2022/08/13 07:46:07;;;;;;;3.95;0.80;;;25.80;70.00;;;;;;5030183;28;20069;-69
2022/08/13 07:48:35;;;;;;;2.63;1.08;;;26.00;67.90;;;;;;5045929;28;20454;-69
2022/08/13 07:51:05;;;;;;;2.63;0.70;;;26.30;67.50;;;;;;5025947;28;20045;-69
2022/08/13 07:53:34;;;;;;;1.77;0.80;;;26.40;65.10;;;;;;5039360;28;20068;-69
2022/08/13 07:56:01;;;;;;;1.80;0.60;;;26.60;64.70;;;;;;5037541;28;20046;-69
2022/08/13 07:58:28;;;;;;;1.88;0.55;;;27.00;63.60;;;;;;5040584;28;20131;-69
2022/08/13 08:00:57;;;;;;;5.88;0.85;;;27.30;61.30;;;;;;5037997;28;20049;-69
2022/08/13 08:03:28;;;;;;;3.28;0.80;;;27.60;60.80;;;;;;5036400;28;20487;-69
2022/08/13 08:05:55;;;;;;;4.60;1.13;;;27.80;59.10;;;;;;5043350;28;20049;-68
2022/08/13 08:08:22;;;;;;;4.10;0.77;;;28.30;57.20;;;;;;5033171;28;20049;-68
2022/08/13 08:10:47;;;;;;;3.78;0.93;;;28.70;55.60;;;;;;5037520;28;20068;-69
2022/08/13 08:13:14;;;;;;;1.55;0.63;;;28.80;54.20;;;;;;5042463;28;20044;-69
2022/08/13 08:15:42;;;;;;;1.98;0.70;;;28.90;54.70;;;;;;5031918;28;20078;-69
2022/08/13 08:18:08;;;;;;;2.92;0.70;;;29.00;54.10;;;;;;5041079;28;20488;-69
2022/08/13 08:20:34;;;;;;;1.98;0.60;;;29.30;53.30;;;;;;5045296;28;20036;-69
2022/08/13 08:23:00;;;;;;;2.45;0.60;;;29.60;53.30;;;;;;5045849;28;20087;-70
2022/08/13 08:25:26;;;;;;;3.95;0.60;;;30.00;53.40;;;;;;5043747;28;20144;-69
2022/08/13 08:27:52;;;;;;;1.27;0.50;;;30.60;53.30;;;;;;5040590;28;20129;-69
2022/08/13 08:30:20;;;;;;;2.42;0.60;;;31.10;51.70;;;;;;5038573;28;20056;-70
2022/08/13 08:32:51;;;;;;;3.58;1.02;;;31.50;50.30;;;;;;5033419;28;20053;-69
2022/08/13 08:35:17;;;;;;;2.80;0.57;;;31.90;48.80;;;;;;5036459;28;20052;-70
2022/08/13 08:43:16;;;;;;;2.33;0.50;;;32.70;46.50;;;;;;5049519;28;20385;-70
2022/08/13 08:45:44;;;;;;;2.13;0.68;;;32.80;45.40;;;;;;5043795;28;20041;-70
2022/08/13 08:48:14;;;;;;;2.13;0.60;;;32.70;44.10;;;;;;5044818;28;20517;-69
2022/08/13 08:50:41;;;;;;;4.47;0.50;;;32.70;43.60;;;;;;5043907;28;20104;-69
2022/08/13 08:53:19;;;;;;;1.27;0.43;;;32.50;43.60;;;;;;5040135;28;20056;-70
2022/08/13 08:55:45;;;;;;;1.67;0.47;;;32.60;42.90;;;;;;5045456;28;20657;-68
2022/08/13 08:58:12;;;;;;;3.13;0.57;;;32.70;42.90;;;;;;5038804;28;20057;-68
2022/08/13 09:00:40;;;;;;;2.10;0.55;;;32.80;42.80;;;;;;5036618;28;20056;-68
2022/08/13 09:03:08;;;;;;;2.15;0.40;;;32.90;42.70;;;;;;5038448;28;20045;-69
2022/08/13 09:05:35;;;;;;;1.77;0.40;;;32.90;42.50;;;;;;5039878;28;20437;-68
2022/08/13 09:08:03;;;;;;;3.33;2.17;;;32.90;42.40;;;;;;5046322;28;20057;-69
2022/08/13 09:10:35;;;;;;;2.65;0.50;;;33.00;42.10;;;;;;5045136;28;20041;-69
2022/08/13 09:13:02;;;;;;;3.03;0.60;;;33.20;41.80;;;;;;5044499;28;20053;-70
2022/08/13 09:15:31;;;;;;;2.55;0.50;;;33.40;41.00;;;;;;5045581;28;20037;-69
2022/08/13 09:17:58;;;;;;;1.00;0.40;;;33.60;40.40;;;;;;5045912;28;20036;-68
2022/08/13 09:20:26;;;;;;;5.80;0.55;;;33.70;40.90;;;;;;5045471;28;20051;-68
2022/08/13 09:23:07;;;;;;;2.95;0.50;;;33.50;39.90;;;;;;5043334;28;20041;-70
2022/08/13 09:25:35;;;;;;;3.85;0.60;;;33.50;40.60;;;;;;5040694;28;20437;-69
2022/08/13 09:28:03;;;;;;;0.77;0.30;;;33.50;40.50;;;;;;5038294;28;20493;-68
2022/08/13 09:30:30;;;;;;;1.08;0.30;;;33.70;39.10;;;;;;5043237;28;20037;-70
2022/08/13 09:32:58;;;;;;;1.98;0.50;;;33.60;39.20;;;;;;5043206;28;20045;-68
2022/08/13 09:35:29;;;;;;;0.55;0.30;;;33.60;39.60;;;;;;5047770;28;20116;-69
2022/08/13 09:37:59;;;;;;;3.78;0.35;;;33.60;38.60;;;;;;5042159;28;20044;-69
2022/08/13 09:40:27;;;;;;;1.67;0.50;;;33.60;38.80;;;;;;5044644;28;20034;-70
2022/08/13 09:42:58;;;;;;;3.15;0.60;;;33.50;39.30;;;;;;5040031;28;20319;-68
2022/08/13 09:45:28;;;;;;;4.18;0.70;;;33.40;38.40;;;;;;5036840;28;20037;-70
2022/08/13 09:47:55;;;;;;;2.10;0.80;;;33.30;39.70;;;;;;5034763;28;20060;-70
2022/08/13 09:50:23;;;;;;;0.82;0.40;;;33.40;39.70;;;;;;5014376;28;20085;-68
2022/08/13 09:52:51;;;;;;;3.03;0.60;;;33.50;39.60;;;;;;5041560;28;20049;-67
2022/08/13 09:55:19;;;;;;;3.60;0.82;;;33.70;39.30;;;;;;5042837;28;20079;-70
2022/08/13 09:57:53;;;;;;;3.05;0.43;;;33.50;37.40;;;;;;5025145;28;20045;-70
2022/08/13 10:00:24;;;;;;;1.23;0.47;;;33.40;38.00;;;;;;5039106;28;20085;-70
2022/08/13 10:02:56;;;;;;;1.25;0.50;;;33.30;39.70;;;;;;5041452;28;20048;-69
2022/08/13 10:05:22;;;;;;;1.00;0.47;;;33.30;38.10;;;;;;5034427;28;20050;-68
2022/08/13 10:07:48;;;;;;;1.90;0.35;;;33.40;38.70;;;;;;5037657;28;20035;-67
2022/08/13 10:10:15;;;;;;;1.75;0.50;;;33.50;38.60;;;;;;5034735;28;20116;-70
2022/08/13 10:12:41;;;;;;;2.03;0.60;;;33.60;38.40;;;;;;5038624;28;20053;-69
2022/08/13 10:15:09;;;;;;;4.47;0.50;;;33.70;38.20;;;;;;5035598;28;20109;-67
2022/08/13 10:17:56;;;;;;;3.58;0.50;;;33.70;38.50;;;;;;5042127;28;20095;-69
2022/08/13 10:20:30;;;;;;;3.08;0.60;;;33.70;37.50;;;;;;5041456;28;20050;-69
2022/08/13 10:23:00;;;;;;;1.95;0.50;;;33.50;37.10;;;;;;5042400;28;20116;-70
2022/08/13 10:25:28;;;;;;;1.38;0.40;;;33.60;37.60;;;;;;5040929;28;20053;-70
2022/08/13 10:27:54;;;;;;;2.08;0.45;;;33.70;37.20;;;;;;5041831;28;20039;-67
2022/08/13 10:30:26;;;;;;;2.30;0.43;;;33.70;37.40;;;;;;5046491;28;20099;-67
2022/08/13 10:32:56;;;;;;;2.10;0.50;;;33.70;37.50;;;;;;5036450;28;20163;-68
2022/08/13 10:35:25;;;;;;;1.92;0.40;;;33.80;38.20;;;;;;5048623;28;20060;-68
2022/08/13 10:37:56;;;;;;;1.38;0.40;;;33.80;37.50;;;;;;5041067;28;20056;-68
2022/08/13 10:40:23;;;;;;;2.70;1.67;;;33.80;36.40;;;;;;5039358;28;20033;-67
2022/08/13 10:42:51;;;;;;;1.90;0.43;;;33.80;36.50;;;;;;5039747;28;20168;-69
2022/08/13 10:45:22;;;;;;;2.35;0.75;;;33.80;36.70;;;;;;5039665;28;20045;-68
2022/08/13 10:47:49;;;;;;;1.17;0.35;;;33.90;37.20;;;;;;5040794;28;20052;-69
2022/08/13 10:50:17;;;;;;;1.48;0.43;;;34.00;36.90;;;;;;5038485;28;20033;-69
2022/08/13 10:52:43;;;;;;;1.42;0.60;;;33.90;36.20;;;;;;5040655;28;20168;-69
2022/08/13 10:55:12;;;;;;;1.38;0.50;;;33.80;36.90;;;;;;5022647;28;20631;-69
2022/08/13 10:57:39;;;;;;;2.60;0.50;;;34.00;36.30;;;;;;5039705;28;20051;-67
2022/08/13 11:00:07;;;;;;;2.30;0.38;;;33.90;36.10;;;;;;5039944;28;20473;-68
2022/08/13 11:02:33;;;;;;;2.38;0.73;;;33.80;36.50;;;;;;5040467;28;20093;-69
2022/08/13 11:05:00;;;;;;;3.03;0.50;;;33.90;36.80;;;;;;5040325;28;20129;-70
2022/08/13 11:07:26;;;;;;;5.57;0.77;;;34.20;37.50;;;;;;5021863;28;20392;-70
2022/08/13 11:09:52;;;;;;;6.20;0.60;;;34.50;36.80;;;;;;5043405;28;20175;-70
2022/08/13 11:12:19;;;;;;;0.73;0.40;;;34.50;36.20;;;;;;5041014;28;20451;-67
2022/08/13 11:14:46;;;;;;;2.17;0.40;;;34.60;35.50;;;;;;5043126;28;20515;-69
2022/08/13 11:17:17;;;;;;;1.77;0.75;;;34.40;35.90;;;;;;5036328;28;20096;-71
2022/08/13 11:19:45;;;;;;;1.95;0.68;;;34.40;36.60;;;;;;5025385;28;20140;-73
2022/08/13 11:22:12;;;;;;;3.50;0.40;;;34.40;36.20;;;;;;5020804;28;20048;-69
2022/08/13 11:24:38;;;;;;;0.70;0.30;;;34.60;35.10;;;;;;5023665;28;20056;-70
2022/08/13 11:27:04;;;;;;;2.60;0.60;;;34.50;35.00;;;;;;5040829;28;20065;-70
2022/08/13 11:29:30;;;;;;;3.65;0.47;;;34.50;34.90;;;;;;5040175;28;20041;-69
2022/08/13 11:31:57;;;;;;;1.05;0.32;;;34.50;35.60;;;;;;5025551;28;20076;-68
2022/08/13 11:34:23;;;;;;;2.10;0.47;;;34.50;34.70;;;;;;5042274;28;20154;-70
2022/08/13 11:36:49;;;;;;;2.10;0.40;;;34.40;34.70;;;;;;5023713;28;20073;-69
2022/08/13 11:39:15;;;;;;;2.33;0.50;;;34.30;34.90;;;;;;5019560;28;20061;-68
2022/08/13 11:41:41;;;;;;;0.75;0.40;;;34.30;34.90;;;;;;5037935;28;20128;-68
2022/08/13 11:44:06;;;;;;;0.80;0.40;;;34.10;35.50;;;;;;5044067;28;20207;-69
2022/08/13 11:46:32;;;;;;;4.57;0.50;;;34.30;36.00;;;;;;5045609;28;20249;-69
2022/08/13 11:48:58;;;;;;;1.23;0.30;;;34.50;35.40;;;;;;5037756;28;20116;-69
2022/08/13 11:51:23;;;;;;;3.05;1.50;;;34.80;35.50;;;;;;5041088;28;20068;-68
2022/08/13 11:53:49;;;;;;;4.22;0.60;;;34.90;34.50;;;;;;5053675;28;20044;-68
2022/08/13 11:56:15;;;;;;;0.90;0.32;;;35.00;34.60;;;;;;5064799;28;20445;-69
2022/08/13 11:58:40;;;;;;;0.80;0.40;;;35.10;33.50;;;;;;5064722;28;20058;-68
2022/08/13 12:01:06;;;;;;;1.35;0.40;;;35.10;33.90;;;;;;5067582;28;20150;-69
2022/08/13 12:03:39;;;;;;;1.58;0.50;;;35.20;34.80;;;;;;5060334;28;20041;-70
2022/08/13 12:06:05;;;;;;;;;;;35.50;33.80;;;;;;5050475;28;20048;-70
2022/08/13 12:08:31;;;;;;;2.50;0.57;;;35.70;33.50;;;;;;5043122;28;19932;-66
2022/08/13 12:10:56;;;;;;;1.98;0.47;;;35.30;33.10;;;;;;5060755;28;20025;-67
2022/08/13 12:13:22;;;;;;;1.75;0.47;;;35.30;32.40;;;;;;5062340;28;20455;-69
2022/08/13 12:15:48;;;;;;;1.17;0.38;;;35.00;32.70;;;;;;5045701;28;20075;-68
2022/08/13 12:18:17;;;;;;;2.95;0.50;;;35.10;33.10;;;;;;5065168;28;20052;-68
2022/08/13 12:20:43;;;;;;;1.15;0.30;;;35.40;33.70;;;;;;5064716;28;20037;-68
2022/08/13 12:23:09;;;;;;;2.67;0.40;;;35.50;33.40;;;;;;5063554;28;20068;-68
2022/08/13 12:25:36;;;;;;;1.20;0.50;;;35.60;33.20;;;;;;5046176;28;20535;-69
2022/08/13 12:28:08;;;;;;;1.23;0.38;;;35.80;32.90;;;;;;5042636;28;20037;-68
2022/08/13 12:30:34;;;;;;;1.27;0.40;;;36.30;32.40;;;;;;5041327;28;20044;-67
2022/08/13 12:32:59;;;;;;;1.63;0.50;;;36.40;32.10;;;;;;5057813;28;20033;-68
2022/08/13 12:35:25;;;;;;;2.47;0.68;;;36.40;32.50;;;;;;5042160;28;20079;-70
2022/08/13 12:37:51;;;;;;;2.88;0.70;;;36.50;32.90;;;;;;5063785;28;20036;-70
2022/08/13 12:40:16;;;;;;;1.92;0.60;;;36.70;32.70;;;;;;5063843;28;20055;-70
2022/08/13 12:42:42;;;;;;;1.30;0.47;;;36.80;32.30;;;;;;5064980;28;20033;-69
2022/08/13 12:45:09;;;;;;;2.30;0.40;;;36.70;32.50;;;;;;5042102;28;20481;-68
2022/08/13 12:47:35;;;;;;;1.88;0.40;;;36.40;32.50;;;;;;5030869;28;20052;-69
2022/08/13 12:50:02;;;;;;;1.15;0.50;;;36.40;32.60;;;;;;5066435;28;20036;-68
2022/08/13 12:52:28;;;;;;;2.47;0.50;;;36.40;32.00;;;;;;5047546;28;20040;-69
2022/08/13 12:54:53;;;;;;;0.90;0.40;;;35.80;31.70;;;;;;5042016;28;20488;-69
2022/08/13 12:57:19;;;;;;;2.75;0.80;;;34.80;32.20;;;;;;5048626;28;20045;-69
2022/08/13 12:59:45;;;;;;;3.22;0.45;;;34.70;33.60;;;;;;5038272;28;20095;-70
2022/08/13 13:02:10;;;;;;;1.33;0.40;;;34.80;32.90;;;;;;5061830;28;20444;-69
2022/08/13 13:04:41;;;;;;;3.10;0.70;;;34.60;32.30;;;;;;5050254;28;20436;-67
2022/08/13 13:07:07;;;;;;;1.30;0.50;;;34.50;32.80;;;;;;5028278;28;20132;-68
2022/08/13 13:09:33;;;;;;;2.28;0.50;;;34.40;33.50;;;;;;5065663;28;20090;-68
2022/08/13 13:11:59;;;;;;;4.15;0.63;;;34.50;33.70;;;;;;5064037;28;20037;-71